createdAt,value
2019-03-23T00:01:28.225Z,11.60
2019-03-23T00:04:31.705Z,11.60
2019-03-23T00:07:35.173Z,11.60
2019-03-23T00:10:38.657Z,11.60
2019-03-23T00:13:42.127Z,11.50
2019-03-23T00:16:45.598Z,11.50
2019-03-23T00:19:49.038Z,11.50
2019-03-23T00:22:52.519Z,11.50
2019-03-23T00:25:55.961Z,11.50
2019-03-23T00:28:59.457Z,11.40
2019-03-23T00:32:02.914Z,11.40
2019-03-23T00:35:07.115Z,11.40
2019-03-23T00:38:10.593Z,11.30
2019-03-23T00:41:14.049Z,11.30
2019-03-23T00:44:17.493Z,11.30
2019-03-23T00:47:20.964Z,11.30
2019-03-23T00:50:24.430Z,11.30
2019-03-23T00:53:27.898Z,11.20
2019-03-23T00:56:31.389Z,11.20
2019-03-23T00:59:34.873Z,11.20
2019-03-23T01:02:38.389Z,11.20
2019-03-23T01:05:41.841Z,11.20
2019-03-23T01:08:45.333Z,11.20
2019-03-23T01:11:48.774Z,11.10
2019-03-23T01:14:52.241Z,11.10
2019-03-23T01:17:55.690Z,11.10
2019-03-23T01:20:59.150Z,11.10
2019-03-23T01:24:02.662Z,11.00
2019-03-23T01:27:06.128Z,11.00
2019-03-23T01:30:14.402Z,11.00
2019-03-23T01:33:17.846Z,11.00
2019-03-23T01:36:21.337Z,11.00
2019-03-23T01:39:24.828Z,10.90
2019-03-23T01:42:28.294Z,10.90
2019-03-23T01:45:31.765Z,10.90
2019-03-23T01:48:35.205Z,10.80
2019-03-23T01:51:38.683Z,10.80
2019-03-23T01:54:42.216Z,10.80
2019-03-23T01:57:45.657Z,10.70
2019-03-23T02:00:49.121Z,10.70
2019-03-23T02:03:52.582Z,10.80
2019-03-23T02:06:56.057Z,10.80
2019-03-23T02:09:59.513Z,10.70
2019-03-23T02:13:03.001Z,10.70
2019-03-23T02:16:06.446Z,10.60
2019-03-23T02:19:09.929Z,10.60
2019-03-23T02:22:13.377Z,10.60
2019-03-23T02:25:16.834Z,10.50
2019-03-23T02:28:20.303Z,10.50
2019-03-23T02:31:23.770Z,10.50
2019-03-23T02:34:27.233Z,10.50
2019-03-23T02:37:30.768Z,10.40
2019-03-23T02:40:34.204Z,10.50
2019-03-23T02:43:37.672Z,10.40
2019-03-23T02:46:41.133Z,10.50
2019-03-23T02:49:44.576Z,10.50
2019-03-23T02:52:48.045Z,10.50
2019-03-23T02:55:51.514Z,10.50
2019-03-23T02:58:54.954Z,10.50
2019-03-23T03:01:58.424Z,10.50
2019-03-23T03:05:01.854Z,10.50
2019-03-23T03:08:05.320Z,10.50
2019-03-23T03:11:08.791Z,10.50
2019-03-23T03:14:12.235Z,10.50
2019-03-23T03:17:15.703Z,10.40
2019-03-23T03:20:19.157Z,10.40
2019-03-23T03:23:22.626Z,10.40
2019-03-23T03:26:26.063Z,10.40
2019-03-23T03:29:29.528Z,10.40
2019-03-23T03:32:32.975Z,10.40
2019-03-23T03:35:36.436Z,10.40
2019-03-23T03:38:39.876Z,10.30
2019-03-23T03:41:43.348Z,10.40
2019-03-23T03:44:46.805Z,10.30
2019-03-23T03:47:50.254Z,10.30
2019-03-23T03:50:53.730Z,10.30
2019-03-23T03:53:57.166Z,10.30
2019-03-23T03:57:00.628Z,10.30
2019-03-23T04:00:09.199Z,10.20
2019-03-23T04:03:12.738Z,10.30
2019-03-23T04:06:16.211Z,10.30
2019-03-23T04:09:19.673Z,10.30
2019-03-23T04:12:23.115Z,10.40
2019-03-23T04:15:26.573Z,10.40
2019-03-23T04:18:30.010Z,10.40
2019-03-23T04:21:33.470Z,10.30
2019-03-23T04:24:36.938Z,10.30
2019-03-23T04:27:40.378Z,10.10
2019-03-23T04:30:43.857Z,10.00
2019-03-23T04:33:47.285Z,9.80
2019-03-23T04:36:50.741Z,9.70
2019-03-23T04:39:54.207Z,9.60
2019-03-23T04:42:57.641Z,9.50
2019-03-23T04:46:01.368Z,9.40
2019-03-23T04:49:04.796Z,9.20
2019-03-23T04:52:08.261Z,9.00
2019-03-23T04:55:12.652Z,9.00
2019-03-23T04:58:16.118Z,9.00
2019-03-23T05:01:19.577Z,8.90
2019-03-23T05:04:23.040Z,8.90
2019-03-23T05:07:26.493Z,8.80
2019-03-23T05:10:29.953Z,8.70
2019-03-23T05:13:33.398Z,8.70
2019-03-23T05:16:36.925Z,8.70
2019-03-23T05:19:40.392Z,8.70
2019-03-23T05:22:43.853Z,8.70
2019-03-23T05:25:47.315Z,8.80
2019-03-23T05:28:50.756Z,8.80
2019-03-23T05:31:54.223Z,8.90
2019-03-23T05:34:57.672Z,9.00
2019-03-23T05:38:01.138Z,9.10
2019-03-23T05:41:04.581Z,9.10
2019-03-23T05:44:08.042Z,9.20
2019-03-23T05:47:11.500Z,9.30
2019-03-23T05:50:14.964Z,9.40
2019-03-23T05:53:18.413Z,9.60
2019-03-23T05:56:21.878Z,9.70
2019-03-23T05:59:25.384Z,10.60
2019-03-23T06:02:28.874Z,11.70
2019-03-23T06:05:32.340Z,12.80
2019-03-23T06:08:35.777Z,13.70
2019-03-23T06:11:39.252Z,14.30
2019-03-23T06:14:42.713Z,14.60
2019-03-23T06:17:46.164Z,15.00
2019-03-23T06:20:49.624Z,15.30
2019-03-23T06:23:53.072Z,15.90
2019-03-23T06:26:56.604Z,16.70
2019-03-23T06:30:00.076Z,17.20
2019-03-23T06:33:03.681Z,17.50
2019-03-23T06:36:07.125Z,17.80
2019-03-23T06:39:10.593Z,18.00
2019-03-23T06:42:14.028Z,18.30
2019-03-23T06:45:17.494Z,18.60
2019-03-23T06:48:20.968Z,19.00
2019-03-23T06:51:24.430Z,19.40
2019-03-23T06:54:27.894Z,19.80
2019-03-23T06:57:31.361Z,20.10
2019-03-23T07:00:34.832Z,20.50
2019-03-23T07:03:38.274Z,20.40
2019-03-23T07:06:41.951Z,20.80
2019-03-23T07:09:45.475Z,21.20
2019-03-23T07:12:48.915Z,21.60
2019-03-23T07:15:52.436Z,21.70
2019-03-23T07:18:55.876Z,21.50
2019-03-23T07:21:59.336Z,21.20
2019-03-23T07:25:03.070Z,21.20
2019-03-23T07:28:08.030Z,21.50
2019-03-23T07:31:11.681Z,21.80
2019-03-23T07:34:15.117Z,22.10
2019-03-23T07:37:18.723Z,22.60
2019-03-23T07:40:22.156Z,22.70
2019-03-23T07:43:25.616Z,22.50
2019-03-23T07:46:29.055Z,21.70
2019-03-23T07:49:32.525Z,21.30
2019-03-23T07:52:36.007Z,21.00
2019-03-23T07:55:39.462Z,20.90
2019-03-23T07:58:43.008Z,20.70
2019-03-23T08:01:46.496Z,20.70
2019-03-23T08:04:49.960Z,21.20
2019-03-23T08:07:53.529Z,21.20
2019-03-23T08:10:56.969Z,21.30
2019-03-23T08:14:00.429Z,21.70
2019-03-23T08:17:03.908Z,21.80
2019-03-23T08:20:08.010Z,21.60
2019-03-23T08:23:11.479Z,21.60
2019-03-23T08:26:14.928Z,21.60
2019-03-23T08:29:18.397Z,21.90
2019-03-23T08:32:21.864Z,22.10
2019-03-23T08:35:25.330Z,22.40
2019-03-23T08:38:28.793Z,22.50
2019-03-23T08:41:32.238Z,22.10
2019-03-23T08:44:35.700Z,21.90
2019-03-23T08:47:39.173Z,21.70
2019-03-23T08:50:42.646Z,21.60
2019-03-23T08:53:46.108Z,21.70
2019-03-23T08:56:49.576Z,21.60
2019-03-23T08:59:53.051Z,21.20
2019-03-23T09:02:56.486Z,20.40
2019-03-23T09:05:59.965Z,20.20
2019-03-23T09:09:04.887Z,19.70
2019-03-23T09:12:08.320Z,19.20
2019-03-23T09:15:11.932Z,18.60
2019-03-23T09:18:15.381Z,18.40
2019-03-23T09:21:18.840Z,18.10
2019-03-23T09:24:22.291Z,18.00
2019-03-23T09:27:25.746Z,17.80
2019-03-23T09:30:29.226Z,17.50
2019-03-23T09:33:32.668Z,17.30
2019-03-23T09:36:36.129Z,17.10
2019-03-23T09:39:39.564Z,16.90
2019-03-23T09:42:43.032Z,16.80
2019-03-23T09:45:46.465Z,16.70
2019-03-23T09:48:49.928Z,16.70
2019-03-23T09:51:53.371Z,16.60
2019-03-23T09:54:56.841Z,16.40
2019-03-23T09:58:00.316Z,16.40
2019-03-23T10:01:03.765Z,16.40
2019-03-23T10:04:07.232Z,16.40
2019-03-23T10:07:10.696Z,16.40
2019-03-23T10:10:21.804Z,16.50
2019-03-23T10:13:19.339Z,16.70
2019-03-23T10:16:22.817Z,16.80
2019-03-23T10:19:26.276Z,16.80
2019-03-23T10:22:29.719Z,16.80
2019-03-23T10:25:33.193Z,16.80
2019-03-23T10:28:36.637Z,16.70
2019-03-23T10:31:40.111Z,16.70
2019-03-23T10:34:43.555Z,16.60
2019-03-23T10:37:47.035Z,16.50
2019-03-23T10:40:50.472Z,16.40
2019-03-23T10:43:54.014Z,16.30
2019-03-23T10:46:57.464Z,16.20
2019-03-23T10:50:00.934Z,16.10
2019-03-23T10:53:04.461Z,16.00
2019-03-23T10:56:07.916Z,16.00
2019-03-23T10:59:11.376Z,16.00
2019-03-23T11:02:14.848Z,16.00
2019-03-23T11:05:18.292Z,16.00
2019-03-23T11:08:21.760Z,15.90
2019-03-23T11:11:25.227Z,15.90
2019-03-23T11:14:28.680Z,15.80
2019-03-23T11:17:32.216Z,15.70
2019-03-23T11:20:35.688Z,15.70
2019-03-23T11:23:39.156Z,15.70
2019-03-23T11:26:42.629Z,15.70
2019-03-23T11:29:46.087Z,15.60
2019-03-23T11:32:49.552Z,15.60
2019-03-23T11:35:57.671Z,15.50
2019-03-23T11:38:58.209Z,15.30
2019-03-23T11:42:01.654Z,15.00
2019-03-23T11:45:08.765Z,14.70
2019-03-23T11:48:12.200Z,14.70
2019-03-23T11:51:15.673Z,14.70
2019-03-23T11:54:19.112Z,14.50
2019-03-23T11:57:22.605Z,14.20
2019-03-23T12:00:26.038Z,14.00
2019-03-23T12:03:29.505Z,13.70
2019-03-23T12:06:32.949Z,13.50
2019-03-23T12:09:36.404Z,13.20
2019-03-23T12:12:41.380Z,12.90
2019-03-23T12:15:44.852Z,12.70
2019-03-23T12:18:48.321Z,12.60
2019-03-23T12:21:51.764Z,12.60
2019-03-23T12:24:55.247Z,12.70
2019-03-23T12:27:58.716Z,12.70
2019-03-23T12:31:02.148Z,12.70
2019-03-23T12:34:05.640Z,12.70
2019-03-23T12:37:09.124Z,12.60
2019-03-23T12:40:13.063Z,12.50
2019-03-23T12:43:16.529Z,12.40
2019-03-23T12:46:20.013Z,12.20
2019-03-23T12:49:23.456Z,12.10
2019-03-23T12:52:26.936Z,12.10
2019-03-23T12:55:30.415Z,12.10
2019-03-23T12:58:33.860Z,11.90
2019-03-23T13:01:37.325Z,11.80
2019-03-23T13:04:40.792Z,11.70
2019-03-23T13:07:44.257Z,11.70
2019-03-23T13:10:47.704Z,11.80
2019-03-23T13:13:51.176Z,11.80
2019-03-23T13:16:54.616Z,11.90
2019-03-23T13:19:58.146Z,11.80
2019-03-23T13:23:01.628Z,11.80
2019-03-23T13:26:05.238Z,11.90
2019-03-23T13:29:08.698Z,11.90
2019-03-23T13:32:16.150Z,11.80
2019-03-23T13:35:19.612Z,11.70
2019-03-23T13:38:23.051Z,11.40
2019-03-23T13:41:26.526Z,11.30
2019-03-23T13:44:30.007Z,11.10
2019-03-23T13:47:33.453Z,11.10
2019-03-23T13:50:36.920Z,11.10
2019-03-23T13:53:40.360Z,11.00
2019-03-23T13:56:43.820Z,11.00
2019-03-23T13:59:48.161Z,11.00
2019-03-23T14:02:51.628Z,11.00
2019-03-23T14:05:55.093Z,10.90
2019-03-23T14:08:58.536Z,10.80
2019-03-23T14:12:02.013Z,10.80
2019-03-23T14:15:06.719Z,10.70
2019-03-23T14:18:10.204Z,10.60
2019-03-23T14:21:13.644Z,10.60
2019-03-23T14:24:17.118Z,10.60
2019-03-23T14:27:20.564Z,10.60
2019-03-23T14:30:24.033Z,10.50
2019-03-23T14:33:27.557Z,10.50
2019-03-23T14:36:31.020Z,10.60
2019-03-23T14:39:34.460Z,10.50
2019-03-23T14:42:37.928Z,10.50
2019-03-23T14:45:41.378Z,10.50
2019-03-23T14:48:44.844Z,10.60
2019-03-23T14:51:48.278Z,10.60
2019-03-23T14:54:51.748Z,10.60
2019-03-23T14:57:55.188Z,10.60
2019-03-23T15:00:58.669Z,10.60
2019-03-23T15:04:02.117Z,10.60
2019-03-23T15:07:05.584Z,10.70
2019-03-23T15:10:09.770Z,10.60
2019-03-23T15:13:13.236Z,10.40
2019-03-23T15:16:16.680Z,10.30
2019-03-23T15:19:20.141Z,10.40
2019-03-23T15:22:23.608Z,10.40
2019-03-23T15:25:27.081Z,10.50
2019-03-23T15:28:30.530Z,10.50
2019-03-23T15:31:33.996Z,10.50
2019-03-23T15:34:37.443Z,10.50
2019-03-23T15:37:40.931Z,10.50
2019-03-23T15:40:44.424Z,10.40
2019-03-23T15:43:47.901Z,10.50
2019-03-23T15:46:51.344Z,10.50
2019-03-23T15:49:54.812Z,10.50
2019-03-23T15:52:58.254Z,10.50
2019-03-23T15:56:01.737Z,10.60
2019-03-23T15:59:05.177Z,10.70
2019-03-23T16:02:08.640Z,10.70
2019-03-23T16:05:12.218Z,10.70
2019-03-23T16:08:15.688Z,10.60
2019-03-23T16:11:19.132Z,10.60
2019-03-23T16:14:22.602Z,10.50
2019-03-23T16:17:26.036Z,10.60
2019-03-23T16:20:29.517Z,10.50
2019-03-23T16:23:32.956Z,10.40
2019-03-23T16:26:36.424Z,10.40
2019-03-23T16:29:39.875Z,10.40
2019-03-23T16:32:51.508Z,10.40
2019-03-23T16:35:54.954Z,10.30
2019-03-23T16:38:58.420Z,10.30
2019-03-23T16:42:01.864Z,10.30
2019-03-23T16:45:08.417Z,10.30
2019-03-23T16:48:11.935Z,10.20
2019-03-23T16:51:15.401Z,10.20
2019-03-23T16:54:18.852Z,10.10
2019-03-23T16:57:22.321Z,10.10
2019-03-23T17:00:36.796Z,10.10
2019-03-23T17:03:40.316Z,10.00
2019-03-23T17:06:46.662Z,9.90
2019-03-23T17:09:48.969Z,9.90
2019-03-23T17:12:55.589Z,9.90
2019-03-23T17:15:57.587Z,9.90
2019-03-23T17:19:01.057Z,9.90
2019-03-23T17:22:04.497Z,9.80
2019-03-23T17:25:08.030Z,9.80
2019-03-23T17:28:11.465Z,9.70
2019-03-23T17:31:14.942Z,9.60
2019-03-23T17:34:20.409Z,9.70
2019-03-23T17:37:23.633Z,9.70
2019-03-23T17:40:27.068Z,9.70
2019-03-23T17:43:30.607Z,9.70
2019-03-23T17:46:34.059Z,9.80
2019-03-23T17:49:37.520Z,9.80
2019-03-23T17:52:40.961Z,9.80
2019-03-23T17:55:44.429Z,9.80
2019-03-23T17:58:47.868Z,9.90
2019-03-23T18:01:51.342Z,9.80
2019-03-23T18:04:54.805Z,9.80
2019-03-23T18:07:58.241Z,9.80
2019-03-23T18:11:01.709Z,9.80
2019-03-23T18:14:05.151Z,9.70
2019-03-23T18:17:08.612Z,9.80
2019-03-23T18:20:12.566Z,9.80
2019-03-23T18:23:16.025Z,9.80
2019-03-23T18:26:19.476Z,9.80
2019-03-23T18:29:22.944Z,9.80
2019-03-23T18:32:26.369Z,9.80
2019-03-23T18:35:29.849Z,9.90
2019-03-23T18:38:33.285Z,9.90
2019-03-23T18:41:36.748Z,9.90
2019-03-23T18:44:40.186Z,9.90
2019-03-23T18:47:43.649Z,9.80
2019-03-23T18:50:47.387Z,9.80
2019-03-23T18:53:50.993Z,9.80
2019-03-23T18:56:54.453Z,9.80
2019-03-23T18:59:57.908Z,9.80
2019-03-23T19:03:02.425Z,9.80
2019-03-23T19:06:05.856Z,9.80
2019-03-23T19:09:09.325Z,9.80
2019-03-23T19:12:13.036Z,9.80
2019-03-23T19:15:16.497Z,9.80
2019-03-23T19:18:19.953Z,9.80
2019-03-23T19:21:23.388Z,9.80
2019-03-23T19:24:26.844Z,9.80
2019-03-23T19:27:30.285Z,9.80
2019-03-23T19:30:33.753Z,9.80
2019-03-23T19:33:37.228Z,9.80
2019-03-23T19:36:40.693Z,9.80
2019-03-23T19:39:44.140Z,9.80
2019-03-23T19:42:47.597Z,9.70
2019-03-23T19:45:51.032Z,9.80
2019-03-23T19:48:54.521Z,9.80
2019-03-23T19:51:57.960Z,9.80
2019-03-23T19:55:01.426Z,9.70
2019-03-23T19:58:05.061Z,9.70
2019-03-23T20:01:08.498Z,9.70
2019-03-23T20:04:11.955Z,9.60
2019-03-23T20:07:15.429Z,9.60
2019-03-23T20:10:19.629Z,9.60
2019-03-23T20:13:23.099Z,9.50
2019-03-23T20:16:26.540Z,9.50
2019-03-23T20:19:30.248Z,9.50
2019-03-23T20:22:33.924Z,9.50
2019-03-23T20:25:39.681Z,9.40
2019-03-23T20:28:42.548Z,9.40
2019-03-23T20:31:50.104Z,9.30
2019-03-23T20:34:53.655Z,9.30
2019-03-23T20:37:57.080Z,9.30
2019-03-23T20:41:00.557Z,9.20
2019-03-23T20:44:09.512Z,9.20
2019-03-23T20:47:10.267Z,9.20
2019-03-23T20:50:13.964Z,9.30
2019-03-23T20:53:18.974Z,9.40
2019-03-23T20:56:22.412Z,9.40
2019-03-23T20:59:25.865Z,9.40
2019-03-23T21:02:29.328Z,9.40
2019-03-23T21:05:34.136Z,9.30
2019-03-23T21:08:37.926Z,9.30
2019-03-23T21:11:41.364Z,9.20
2019-03-23T21:14:44.838Z,9.20
2019-03-23T21:17:51.475Z,9.10
2019-03-23T21:20:53.460Z,9.00
2019-03-23T21:23:56.900Z,8.90
2019-03-23T21:27:00.366Z,8.80
2019-03-23T21:30:05.823Z,8.80
2019-03-23T21:33:09.357Z,8.70
2019-03-23T21:36:12.825Z,8.70
2019-03-23T21:39:16.260Z,8.70
2019-03-23T21:42:19.732Z,8.60
2019-03-23T21:45:23.181Z,8.60
2019-03-23T21:48:26.630Z,8.60
2019-03-23T21:51:30.100Z,8.60
2019-03-23T21:54:33.556Z,8.50
2019-03-23T21:57:37.002Z,8.50
2019-03-23T22:00:40.460Z,8.60
2019-03-23T22:03:43.899Z,8.50
2019-03-23T22:06:47.352Z,8.40
2019-03-23T22:09:50.825Z,8.40
2019-03-23T22:12:55.797Z,8.30
2019-03-23T22:15:59.248Z,8.40
2019-03-23T22:19:02.733Z,8.30
2019-03-23T22:22:06.169Z,8.30
2019-03-23T22:25:09.896Z,8.20
2019-03-23T22:28:13.365Z,8.20
2019-03-23T22:31:16.844Z,8.20
2019-03-23T22:34:20.343Z,8.10
2019-03-23T22:37:23.787Z,8.10
2019-03-23T22:40:28.231Z,8.10
2019-03-23T22:43:31.915Z,8.00
2019-03-23T22:46:35.431Z,7.90
2019-03-23T22:49:38.866Z,7.80
2019-03-23T22:52:42.325Z,7.80
2019-03-23T22:55:45.766Z,7.70
2019-03-23T22:58:49.286Z,7.70
2019-03-23T23:01:52.867Z,7.70
2019-03-23T23:04:56.318Z,7.70
2019-03-23T23:07:59.780Z,7.60
2019-03-23T23:11:03.221Z,7.60
2019-03-23T23:14:06.691Z,7.60
2019-03-23T23:17:10.120Z,7.60
2019-03-23T23:20:13.649Z,7.60
2019-03-23T23:23:17.079Z,7.60
2019-03-23T23:26:20.540Z,7.60
2019-03-23T23:29:24.000Z,7.60
2019-03-23T23:32:27.463Z,7.60
2019-03-23T23:35:30.919Z,7.60
2019-03-23T23:38:34.360Z,7.60
2019-03-23T23:41:37.812Z,7.60
2019-03-23T23:44:41.263Z,7.60
2019-03-23T23:47:44.732Z,7.70
2019-03-23T23:50:48.229Z,7.80
2019-03-23T23:53:51.805Z,7.80
2019-03-23T23:56:55.237Z,7.80
2019-03-23T23:59:58.705Z,7.90
